createdAt,value
2018-04-26T00:00:19.669Z,11.34
2018-04-26T00:01:19.765Z,11.32
2018-04-26T00:02:19.860Z,11.29
2018-04-26T00:03:19.956Z,11.35
2018-04-26T00:04:20.050Z,11.35
2018-04-26T00:05:20.149Z,11.28
2018-04-26T00:06:20.245Z,11.29
2018-04-26T00:07:20.338Z,11.39
2018-04-26T00:08:20.433Z,11.28
2018-04-26T00:09:20.531Z,11.21
2018-04-26T00:10:20.627Z,11.17
2018-04-26T00:11:20.727Z,11.17
2018-04-26T00:12:20.840Z,11.17
2018-04-26T00:13:20.931Z,11.11
2018-04-26T00:14:21.039Z,11.09
2018-04-26T00:15:21.126Z,11.14
2018-04-26T00:16:21.222Z,11.06
2018-04-26T00:17:21.315Z,11.06
2018-04-26T00:18:21.413Z,11.09
2018-04-26T00:19:21.518Z,10.96
2018-04-26T00:20:21.606Z,10.89
2018-04-26T00:21:21.701Z,10.94
2018-04-26T00:22:21.798Z,10.83
2018-04-26T00:23:21.899Z,10.80
2018-04-26T00:24:21.995Z,10.77
2018-04-26T00:25:22.090Z,10.86
2018-04-26T00:26:22.187Z,10.84
2018-04-26T00:27:22.280Z,10.73
2018-04-26T00:28:22.377Z,10.68
2018-04-26T00:29:22.462Z,10.74
2018-04-26T00:30:22.554Z,10.73
2018-04-26T00:31:22.649Z,10.78
2018-04-26T00:32:22.743Z,10.73
2018-04-26T00:33:22.835Z,10.74
2018-04-26T00:34:23.010Z,10.52
2018-04-26T00:35:23.028Z,10.58
2018-04-26T00:36:23.121Z,10.58
2018-04-26T00:37:23.221Z,10.55
2018-04-26T00:38:23.314Z,10.58
2018-04-26T00:39:31.035Z,10.53
2018-04-26T00:40:23.504Z,10.42
2018-04-26T00:41:23.595Z,10.51
2018-04-26T00:42:23.694Z,10.52
2018-04-26T00:43:23.787Z,10.51
2018-04-26T00:44:23.890Z,10.47
2018-04-26T00:45:24.002Z,10.44
2018-04-26T00:46:24.091Z,10.47
2018-04-26T00:47:24.186Z,10.43
2018-04-26T00:48:24.283Z,10.47
2018-04-26T00:49:24.379Z,10.37
2018-04-26T00:50:24.478Z,10.52
2018-04-26T00:51:24.568Z,10.47
2018-04-26T00:52:24.661Z,10.42
2018-04-26T00:53:24.758Z,10.39
2018-04-26T00:54:24.876Z,10.40
2018-04-26T00:55:24.946Z,10.42
2018-04-26T00:56:25.043Z,10.39
2018-04-26T00:57:25.138Z,10.33
2018-04-26T00:58:25.234Z,10.26
2018-04-26T00:59:32.998Z,10.10
2018-04-26T01:00:25.464Z,10.14
2018-04-26T01:01:25.560Z,10.10
2018-04-26T01:02:25.659Z,10.03
2018-04-26T01:03:25.756Z,10.06
2018-04-26T01:04:25.844Z,10.10
2018-04-26T01:05:25.940Z,9.97
2018-04-26T01:06:26.033Z,9.97
2018-04-26T01:07:26.129Z,10.00
2018-04-26T01:08:26.228Z,10.00
2018-04-26T01:09:26.318Z,10.00
2018-04-26T01:10:26.413Z,10.00
2018-04-26T01:11:26.509Z,9.94
2018-04-26T01:12:26.603Z,10.00
2018-04-26T01:13:26.700Z,9.89
2018-04-26T01:14:26.802Z,9.91
2018-04-26T01:15:26.889Z,9.85
2018-04-26T01:16:26.982Z,9.86
2018-04-26T01:17:27.082Z,9.86
2018-04-26T01:18:27.179Z,9.85
2018-04-26T01:19:27.268Z,9.89
2018-04-26T01:20:27.361Z,9.94
2018-04-26T01:21:27.453Z,9.89
2018-04-26T01:22:27.539Z,9.83
2018-04-26T01:23:27.665Z,9.75
2018-04-26T01:24:27.754Z,9.71
2018-04-26T01:25:27.885Z,9.68
2018-04-26T01:26:27.973Z,9.75
2018-04-26T01:27:28.153Z,9.70
2018-04-26T01:28:28.239Z,9.71
2018-04-26T01:29:28.323Z,9.60
2018-04-26T01:30:28.405Z,9.64
2018-04-26T01:31:28.458Z,9.64
2018-04-26T01:32:28.570Z,9.58
2018-04-26T01:33:28.685Z,9.52
2018-04-26T01:34:28.795Z,9.57
2018-04-26T01:35:28.873Z,9.67
2018-04-26T01:36:28.988Z,9.63
2018-04-26T01:37:29.093Z,9.76
2018-04-26T01:38:29.195Z,9.70
2018-04-26T01:39:29.288Z,9.68
2018-04-26T01:40:29.369Z,9.82
2018-04-26T01:41:29.493Z,9.85
2018-04-26T01:42:29.580Z,9.85
2018-04-26T01:43:29.707Z,9.88
2018-04-26T01:44:29.750Z,10.09
2018-04-26T01:45:30.048Z,9.99
2018-04-26T01:46:30.012Z,10.10
2018-04-26T01:47:30.010Z,10.18
2018-04-26T01:48:30.095Z,10.22
2018-04-26T01:49:30.207Z,10.09
2018-04-26T01:50:30.298Z,10.25
2018-04-26T01:51:30.401Z,10.30
2018-04-26T01:52:30.489Z,10.36
2018-04-26T01:53:30.619Z,10.39
2018-04-26T01:54:30.610Z,10.36
2018-04-26T01:55:30.741Z,10.42
2018-04-26T01:56:30.919Z,10.37
2018-04-26T01:57:30.966Z,10.53
2018-04-26T01:58:31.157Z,10.42
2018-04-26T01:59:31.119Z,10.52
2018-04-26T02:00:31.419Z,10.60
2018-04-26T02:01:31.315Z,10.58
2018-04-26T02:02:31.558Z,10.56
2018-04-26T02:03:31.824Z,10.65
2018-04-26T02:04:31.714Z,10.60
2018-04-26T02:05:31.809Z,10.52
2018-04-26T02:06:32.070Z,10.56
2018-04-26T02:07:32.043Z,10.63
2018-04-26T02:08:32.291Z,10.59
2018-04-26T02:09:32.308Z,10.55
2018-04-26T02:10:32.418Z,10.58
2018-04-26T02:11:32.541Z,10.56
2018-04-26T02:12:32.675Z,10.60
2018-04-26T02:13:32.789Z,10.60
2018-04-26T02:14:32.904Z,10.55
2018-04-26T02:15:33.000Z,10.55
2018-04-26T02:16:33.100Z,10.56
2018-04-26T02:17:33.183Z,10.56
2018-04-26T02:18:33.278Z,10.59
2018-04-26T02:19:33.409Z,10.60
2018-04-26T02:20:33.544Z,10.58
2018-04-26T02:21:33.641Z,10.53
2018-04-26T02:22:33.760Z,10.56
2018-04-26T02:23:33.836Z,10.53
2018-04-26T02:24:33.973Z,10.56
2018-04-26T02:25:34.057Z,10.56
2018-04-26T02:26:34.137Z,10.56
2018-04-26T02:27:34.220Z,10.55
2018-04-26T02:28:34.321Z,10.58
2018-04-26T02:29:34.472Z,10.55
2018-04-26T02:30:34.529Z,10.56
2018-04-26T02:31:34.609Z,10.51
2018-04-26T02:32:34.708Z,10.43
2018-04-26T02:33:34.807Z,10.56
2018-04-26T02:34:34.893Z,10.65
2018-04-26T02:35:34.979Z,10.52
2018-04-26T02:36:35.071Z,10.58
2018-04-26T02:37:35.155Z,10.59
2018-04-26T02:38:35.245Z,10.55
2018-04-26T02:39:35.340Z,10.53
2018-04-26T02:40:35.460Z,10.53
2018-04-26T02:41:35.575Z,10.55
2018-04-26T02:42:35.671Z,10.53
2018-04-26T02:43:35.762Z,10.52
2018-04-26T02:44:35.856Z,10.55
2018-04-26T02:45:35.970Z,10.46
2018-04-26T02:46:36.065Z,10.51
2018-04-26T02:47:36.192Z,10.52
2018-04-26T02:48:36.297Z,10.47
2018-04-26T02:49:36.400Z,10.58
2018-04-26T02:50:36.521Z,10.44
2018-04-26T02:51:36.627Z,10.47
2018-04-26T02:52:36.763Z,10.37
2018-04-26T02:53:36.884Z,10.39
2018-04-26T02:54:36.986Z,10.39
2018-04-26T02:55:37.108Z,10.42
2018-04-26T02:56:37.185Z,10.51
2018-04-26T02:57:37.272Z,10.34
2018-04-26T02:58:37.354Z,10.39
2018-04-26T02:59:37.500Z,10.37
2018-04-26T03:00:37.583Z,10.42
2018-04-26T03:01:37.688Z,10.33
2018-04-26T03:02:37.767Z,10.32
2018-04-26T03:03:37.862Z,10.19
2018-04-26T03:04:37.970Z,10.32
2018-04-26T03:05:38.089Z,10.19
2018-04-26T03:06:38.187Z,10.18
2018-04-26T03:07:38.302Z,10.21
2018-04-26T03:08:38.419Z,10.21
2018-04-26T03:09:38.496Z,10.22
2018-04-26T03:10:38.591Z,10.00
2018-04-26T03:11:38.676Z,10.10
2018-04-26T03:12:38.783Z,9.97
2018-04-26T03:13:38.900Z,10.00
2018-04-26T03:14:38.987Z,9.94
2018-04-26T03:15:39.106Z,10.00
2018-04-26T03:16:39.220Z,9.85
2018-04-26T03:17:39.279Z,9.83
2018-04-26T03:18:39.358Z,9.85
2018-04-26T03:19:39.450Z,9.88
2018-04-26T03:20:39.568Z,9.93
2018-04-26T03:21:39.667Z,9.97
2018-04-26T03:22:39.762Z,10.07
2018-04-26T03:23:39.861Z,10.00
2018-04-26T03:24:39.943Z,9.88
2018-04-26T03:25:40.049Z,9.86
2018-04-26T03:26:40.148Z,9.85
2018-04-26T03:27:40.282Z,9.88
2018-04-26T03:28:40.391Z,10.00
2018-04-26T03:29:40.503Z,10.01
2018-04-26T03:30:40.641Z,9.91
2018-04-26T03:31:40.763Z,10.00
2018-04-26T03:32:40.753Z,9.99
2018-04-26T03:33:40.848Z,10.06
2018-04-26T03:34:40.946Z,10.04
2018-04-26T03:35:41.038Z,10.01
2018-04-26T03:36:41.136Z,10.04
2018-04-26T03:37:41.229Z,10.10
2018-04-26T03:38:41.327Z,10.04
2018-04-26T03:39:41.417Z,10.09
2018-04-26T03:40:41.513Z,9.99
2018-04-26T03:41:41.609Z,9.97
2018-04-26T03:42:41.701Z,9.96
2018-04-26T03:43:41.801Z,9.85
2018-04-26T03:44:41.894Z,9.83
2018-04-26T03:45:41.990Z,9.78
2018-04-26T03:46:42.084Z,9.70
2018-04-26T03:47:42.176Z,9.66
2018-04-26T03:48:42.271Z,9.75
2018-04-26T03:49:42.364Z,9.78
2018-04-26T03:50:42.460Z,9.63
2018-04-26T03:51:42.554Z,9.66
2018-04-26T03:52:42.650Z,9.64
2018-04-26T03:53:42.741Z,9.71
2018-04-26T03:54:42.837Z,9.45
2018-04-26T03:55:42.936Z,9.48
2018-04-26T03:56:43.027Z,9.50
2018-04-26T03:57:43.121Z,9.57
2018-04-26T03:58:43.214Z,9.57
2018-04-26T03:59:43.307Z,9.67
2018-04-26T04:00:51.548Z,9.66
2018-04-26T04:01:43.518Z,9.73
2018-04-26T04:02:43.613Z,9.66
2018-04-26T04:03:43.708Z,9.52
2018-04-26T04:04:43.807Z,9.45
2018-04-26T04:05:43.899Z,9.40
2018-04-26T04:06:43.991Z,9.50
2018-04-26T04:07:44.084Z,9.45
2018-04-26T04:08:44.179Z,9.56
2018-04-26T04:09:44.275Z,9.46
2018-04-26T04:10:44.368Z,9.60
2018-04-26T04:11:44.462Z,9.66
2018-04-26T04:12:44.563Z,9.64
2018-04-26T04:13:44.730Z,9.66
2018-04-26T04:14:44.745Z,9.68
2018-04-26T04:15:44.844Z,9.73
2018-04-26T04:16:44.934Z,9.76
2018-04-26T04:17:45.022Z,9.67
2018-04-26T04:18:45.125Z,9.70
2018-04-26T04:19:45.225Z,9.73
2018-04-26T04:20:45.315Z,9.79
2018-04-26T04:21:45.414Z,9.81
2018-04-26T04:22:45.513Z,9.76
2018-04-26T04:23:45.604Z,9.52
2018-04-26T04:24:45.701Z,9.53
2018-04-26T04:25:45.797Z,9.38
2018-04-26T04:26:45.888Z,9.35
2018-04-26T04:27:45.982Z,9.38
2018-04-26T04:28:46.134Z,9.38
2018-04-26T04:29:46.173Z,9.39
2018-04-26T04:30:46.269Z,9.40
2018-04-26T04:31:46.363Z,9.50
2018-04-26T04:32:46.459Z,9.40
2018-04-26T04:33:46.553Z,9.35
2018-04-26T04:34:46.651Z,9.30
2018-04-26T04:35:46.740Z,9.21
2018-04-26T04:36:46.836Z,9.42
2018-04-26T04:37:46.930Z,9.35
2018-04-26T04:38:47.029Z,9.28
2018-04-26T04:39:47.118Z,9.21
2018-04-26T04:40:47.215Z,9.31
2018-04-26T04:41:47.316Z,9.21
2018-04-26T04:42:47.403Z,9.16
2018-04-26T04:43:47.498Z,9.24
2018-04-26T04:44:47.588Z,9.04
2018-04-26T04:45:47.680Z,8.88
2018-04-26T04:46:47.778Z,8.94
2018-04-26T04:47:47.874Z,8.69
2018-04-26T04:48:47.969Z,8.86
2018-04-26T04:49:48.065Z,8.96
2018-04-26T04:50:48.178Z,8.91
2018-04-26T04:51:48.271Z,8.78
2018-04-26T04:52:48.365Z,8.86
2018-04-26T04:53:48.461Z,8.83
2018-04-26T04:54:48.558Z,8.86
2018-04-26T04:55:48.651Z,8.87
2018-04-26T04:56:48.749Z,8.91
2018-04-26T04:57:48.843Z,9.04
2018-04-26T04:58:48.936Z,9.16
2018-04-26T04:59:49.033Z,9.02
2018-04-26T05:00:49.131Z,9.21
2018-04-26T05:01:49.223Z,9.18
2018-04-26T05:02:49.317Z,9.39
2018-04-26T05:03:49.411Z,9.40
2018-04-26T05:04:49.501Z,9.28
2018-04-26T05:05:49.597Z,9.49
2018-04-26T05:06:49.699Z,9.48
2018-04-26T05:07:49.797Z,9.60
2018-04-26T05:08:49.889Z,9.70
2018-04-26T05:09:49.984Z,9.75
2018-04-26T05:10:50.079Z,9.75
2018-04-26T05:11:50.185Z,9.83
2018-04-26T05:12:50.269Z,9.86
2018-04-26T05:13:50.407Z,9.83
2018-04-26T05:14:50.464Z,9.91
2018-04-26T05:15:50.552Z,10.01
2018-04-26T05:16:50.648Z,10.18
2018-04-26T05:17:50.746Z,10.30
2018-04-26T05:18:50.838Z,10.07
2018-04-26T05:19:50.939Z,10.10
2018-04-26T05:20:51.020Z,10.28
2018-04-26T05:21:51.119Z,10.42
2018-04-26T05:22:51.211Z,10.47
2018-04-26T05:23:51.331Z,10.58
2018-04-26T05:24:51.423Z,10.55
2018-04-26T05:25:51.525Z,10.77
2018-04-26T05:26:51.619Z,10.73
2018-04-26T05:27:51.721Z,10.81
2018-04-26T05:28:51.812Z,10.96
2018-04-26T05:29:51.907Z,10.89
2018-04-26T05:30:52.001Z,10.91
2018-04-26T05:31:52.102Z,11.01
2018-04-26T05:32:52.192Z,11.01
2018-04-26T05:33:52.287Z,11.06
2018-04-26T05:34:52.382Z,10.81
2018-04-26T05:35:52.477Z,10.76
2018-04-26T05:36:52.574Z,10.78
2018-04-26T05:37:52.969Z,10.86
2018-04-26T05:38:52.770Z,10.96
2018-04-26T05:39:53.146Z,10.98
2018-04-26T05:40:52.981Z,10.80
2018-04-26T05:41:53.098Z,10.68
2018-04-26T05:42:53.229Z,10.88
2018-04-26T05:43:53.317Z,10.92
2018-04-26T05:44:53.436Z,10.92
2018-04-26T05:45:53.610Z,10.80
2018-04-26T05:46:53.622Z,10.89
2018-04-26T05:47:53.714Z,11.02
2018-04-26T05:48:53.796Z,11.27
2018-04-26T05:49:53.927Z,11.38
2018-04-26T05:50:54.023Z,11.34
2018-04-26T05:51:54.168Z,11.32
2018-04-26T05:52:54.524Z,11.35
2018-04-26T05:53:54.417Z,11.38
2018-04-26T05:54:54.509Z,11.31
2018-04-26T05:55:54.714Z,11.38
2018-04-26T05:56:54.744Z,11.47
2018-04-26T05:57:54.775Z,11.36
2018-04-26T05:58:54.909Z,11.44
2018-04-26T05:59:55.460Z,11.46
2018-04-26T06:00:55.057Z,11.47
2018-04-26T06:01:55.151Z,11.44
2018-04-26T06:02:55.316Z,11.54
2018-04-26T06:03:55.293Z,11.65
2018-04-26T06:04:55.435Z,11.62
2018-04-26T06:05:55.539Z,11.67
2018-04-26T06:06:55.635Z,11.71
2018-04-26T06:07:56.033Z,11.67
2018-04-26T06:08:55.877Z,11.72
2018-04-26T06:09:55.962Z,11.75
2018-04-26T06:10:56.055Z,11.68
2018-04-26T06:11:56.150Z,11.65
2018-04-26T06:12:56.238Z,11.44
2018-04-26T06:13:56.625Z,11.44
2018-04-26T06:14:56.461Z,11.46
2018-04-26T06:15:56.622Z,11.54
2018-04-26T06:16:56.657Z,11.43
2018-04-26T06:17:56.699Z,11.34
2018-04-26T06:18:56.812Z,11.35
2018-04-26T06:19:56.911Z,11.19
2018-04-26T06:20:57.016Z,11.36
2018-04-26T06:21:57.113Z,11.34
2018-04-26T06:22:57.206Z,11.28
2018-04-26T06:23:57.303Z,11.39
2018-04-26T06:24:57.402Z,11.36
2018-04-26T06:25:57.512Z,11.57
2018-04-26T06:26:57.611Z,11.44
2018-04-26T06:27:57.773Z,11.38
2018-04-26T06:28:57.942Z,11.38
2018-04-26T06:29:58.055Z,11.29
2018-04-26T06:30:58.242Z,11.43
2018-04-26T06:31:58.167Z,11.35
2018-04-26T06:32:58.428Z,11.54
2018-04-26T06:33:58.509Z,11.80
2018-04-26T06:34:58.651Z,11.52
2018-04-26T06:35:58.753Z,11.62
2018-04-26T06:36:59.467Z,11.70
2018-04-26T06:37:58.851Z,11.77
2018-04-26T06:38:59.107Z,11.82
2018-04-26T06:39:59.049Z,11.72
2018-04-26T06:40:59.324Z,11.77
2018-04-26T06:41:59.375Z,11.82
2018-04-26T06:42:59.369Z,11.97
2018-04-26T06:43:59.475Z,12.01
2018-04-26T06:44:59.624Z,11.67
2018-04-26T06:45:59.710Z,11.68
2018-04-26T06:46:59.818Z,11.78
2018-04-26T06:47:59.926Z,11.65
2018-04-26T06:49:00.042Z,11.78
2018-04-26T06:50:00.608Z,12.11
2018-04-26T06:51:00.459Z,12.08
2018-04-26T06:52:00.362Z,11.82
2018-04-26T06:53:00.355Z,11.83
2018-04-26T06:54:00.465Z,11.97
2018-04-26T06:55:00.559Z,12.06
2018-04-26T06:56:00.693Z,12.26
2018-04-26T06:57:00.750Z,12.41
2018-04-26T06:58:00.845Z,12.48
2018-04-26T06:59:01.223Z,12.33
2018-04-26T07:00:01.088Z,12.42
2018-04-26T07:01:01.346Z,12.45
2018-04-26T07:02:01.426Z,12.52
2018-04-26T07:03:01.463Z,12.57
2018-04-26T07:04:01.562Z,12.59
2018-04-26T07:05:01.606Z,12.48
2018-04-26T07:06:01.662Z,12.59
2018-04-26T07:07:01.742Z,12.49
2018-04-26T07:08:01.895Z,12.62
2018-04-26T07:09:01.928Z,12.74
2018-04-26T07:10:02.092Z,12.67
2018-04-26T07:11:02.104Z,12.67
2018-04-26T07:12:02.335Z,12.89
2018-04-26T07:13:02.346Z,12.63
2018-04-26T07:14:02.450Z,12.37
2018-04-26T07:15:02.556Z,12.54
2018-04-26T07:16:02.758Z,12.67
2018-04-26T07:17:02.776Z,12.85
2018-04-26T07:20:14.025Z,13.24
2018-04-26T07:20:34.898Z,13.04
2018-04-26T07:21:34.982Z,13.27
2018-04-26T07:22:35.115Z,12.92
2018-04-26T07:23:35.211Z,13.07
2018-04-26T07:24:35.303Z,13.07
2018-04-26T07:25:35.383Z,13.12
2018-04-26T07:26:35.463Z,13.06
2018-04-26T07:27:35.593Z,13.20
2018-04-26T07:28:35.711Z,13.20
2018-04-26T07:29:35.809Z,13.43
2018-04-26T07:30:35.935Z,13.36
2018-04-26T07:31:36.022Z,13.38
2018-04-26T07:32:36.132Z,13.43
2018-04-26T07:33:36.275Z,13.41
2018-04-26T07:34:36.398Z,13.33
2018-04-26T07:35:36.501Z,13.02
2018-04-26T07:36:36.597Z,12.82
2018-04-26T07:37:36.784Z,12.95
2018-04-26T07:38:36.806Z,13.06
2018-04-26T07:39:36.888Z,13.21
2018-04-26T07:40:36.998Z,13.22
2018-04-26T07:41:37.121Z,13.24
2018-04-26T07:42:37.242Z,13.33
2018-04-26T07:43:37.342Z,13.44
2018-04-26T07:44:37.477Z,13.56
2018-04-26T07:45:37.461Z,13.70
2018-04-26T07:46:37.560Z,14.01
2018-04-26T07:47:37.679Z,14.28
2018-04-26T07:48:37.790Z,14.32
2018-04-26T07:49:37.915Z,14.37
2018-04-26T07:50:38.083Z,14.49
2018-04-26T07:51:38.041Z,14.50
2018-04-26T07:52:38.321Z,14.54
2018-04-26T07:53:38.379Z,14.27
2018-04-26T07:54:38.423Z,14.16
2018-04-26T07:55:38.537Z,14.07
2018-04-26T07:56:38.631Z,13.88
2018-04-26T07:57:38.772Z,13.77
2018-04-26T07:58:38.909Z,13.81
2018-04-26T07:59:39.000Z,13.80
2018-04-26T08:00:39.117Z,13.58
2018-04-26T08:01:39.337Z,13.58
2018-04-26T08:02:39.308Z,13.47
2018-04-26T08:03:39.407Z,13.20
2018-04-26T08:04:39.522Z,13.32
2018-04-26T08:05:39.624Z,13.43
2018-04-26T08:06:39.716Z,13.37
2018-04-26T08:07:39.806Z,13.46
2018-04-26T08:08:39.901Z,13.40
2018-04-26T08:09:40.011Z,13.43
2018-04-26T08:10:40.127Z,13.54
2018-04-26T08:11:40.473Z,13.56
2018-04-26T08:12:44.216Z,13.81
2018-04-26T08:13:40.347Z,13.98
2018-04-26T08:14:40.511Z,14.09
2018-04-26T08:15:40.617Z,14.02
2018-04-26T08:16:40.708Z,14.16
2018-04-26T08:17:40.773Z,14.20
2018-04-26T08:18:40.870Z,14.31
2018-04-26T08:19:40.981Z,14.27
2018-04-26T08:20:41.059Z,14.25
2018-04-26T08:21:41.156Z,14.37
2018-04-26T08:22:41.256Z,14.49
2018-04-26T08:23:42.136Z,14.56
2018-04-26T08:24:41.481Z,14.47
2018-04-26T08:25:41.723Z,14.43
2018-04-26T08:26:41.712Z,14.27
2018-04-26T08:27:41.808Z,14.17
2018-04-26T08:28:41.928Z,14.20
2018-04-26T08:29:42.024Z,14.12
2018-04-26T08:30:42.135Z,14.16
2018-04-26T08:31:42.226Z,14.21
2018-04-26T08:32:42.321Z,14.16
2018-04-26T08:33:42.422Z,13.95
2018-04-26T08:34:42.654Z,13.88
2018-04-26T08:35:42.548Z,13.81
2018-04-26T08:36:42.678Z,14.02
2018-04-26T08:37:42.756Z,14.12
2018-04-26T08:38:42.858Z,14.21
2018-04-26T08:39:42.955Z,14.27
2018-04-26T08:40:43.055Z,14.27
2018-04-26T08:41:43.153Z,14.09
2018-04-26T08:42:43.241Z,14.12
2018-04-26T08:43:43.467Z,14.27
2018-04-26T08:44:43.434Z,13.92
2018-04-26T08:45:43.533Z,14.02
2018-04-26T08:46:43.630Z,14.07
2018-04-26T08:47:43.724Z,14.16
2018-04-26T08:48:43.823Z,14.35
2018-04-26T08:49:44.008Z,14.43
2018-04-26T08:50:43.975Z,14.53
2018-04-26T08:51:44.074Z,14.56
2018-04-26T08:52:44.168Z,14.64
2018-04-26T08:53:44.266Z,14.62
2018-04-26T08:54:44.365Z,14.50
2018-04-26T08:55:44.475Z,14.37
2018-04-26T08:56:44.570Z,14.42
2018-04-26T08:57:44.668Z,14.29
2018-04-26T08:58:44.768Z,14.25
2018-04-26T08:59:45.162Z,14.35
2018-04-26T09:00:44.997Z,14.52
2018-04-26T09:01:45.109Z,14.39
2018-04-26T09:02:45.203Z,14.50
2018-04-26T09:03:45.304Z,14.57
2018-04-26T09:04:45.387Z,14.60
2018-04-26T09:05:45.485Z,14.80
2018-04-26T09:06:45.624Z,14.95
2018-04-26T09:07:45.685Z,14.86
2018-04-26T09:08:45.784Z,14.81
2018-04-26T09:09:45.883Z,14.84
2018-04-26T09:10:45.982Z,14.72
2018-04-26T09:11:46.081Z,14.65
2018-04-26T09:12:46.177Z,14.57
2018-04-26T09:13:46.274Z,14.49
2018-04-26T09:14:46.371Z,14.81
2018-04-26T09:15:46.487Z,15.06
2018-04-26T09:16:46.569Z,15.03
2018-04-26T09:17:46.669Z,14.93
2018-04-26T09:18:46.766Z,14.88
2018-04-26T09:19:46.861Z,15.03
2018-04-26T09:20:46.960Z,15.05
2018-04-26T09:21:47.062Z,15.05
2018-04-26T09:22:47.161Z,15.03
2018-04-26T09:23:47.256Z,15.17
2018-04-26T09:24:47.353Z,15.30
2018-04-26T09:25:47.455Z,15.41
2018-04-26T09:26:47.555Z,15.35
2018-04-26T09:27:47.656Z,15.42
2018-04-26T09:28:47.757Z,15.54
2018-04-26T09:29:47.856Z,15.42
2018-04-26T09:30:47.954Z,15.59
2018-04-26T09:31:48.058Z,15.36
2018-04-26T09:32:48.152Z,15.56
2018-04-26T09:33:48.251Z,15.60
2018-04-26T09:34:48.353Z,15.61
2018-04-26T09:35:48.449Z,15.66
2018-04-26T09:36:48.548Z,15.78
2018-04-26T09:37:48.648Z,15.78
2018-04-26T09:38:48.756Z,15.68
2018-04-26T09:39:48.847Z,15.76
2018-04-26T09:40:48.949Z,15.99
2018-04-26T09:41:49.048Z,15.78
2018-04-26T09:42:49.144Z,15.60
2018-04-26T09:43:49.244Z,15.43
2018-04-26T09:44:49.341Z,15.30
2018-04-26T09:45:49.433Z,15.36
2018-04-26T09:46:49.522Z,15.02
2018-04-26T09:47:49.621Z,15.09
2018-04-26T09:48:49.702Z,15.06
2018-04-26T09:49:49.803Z,15.15
2018-04-26T09:50:49.900Z,15.03
2018-04-26T09:51:50.021Z,14.49
2018-04-26T09:52:50.116Z,14.43
2018-04-26T09:53:50.214Z,14.38
2018-04-26T09:54:50.311Z,14.25
2018-04-26T09:55:50.410Z,13.52
2018-04-26T09:56:50.507Z,13.52
2018-04-26T09:57:50.603Z,13.58
2018-04-26T09:58:50.736Z,13.17
2018-04-26T09:59:50.832Z,13.14
2018-04-26T10:00:50.931Z,12.99
2018-04-26T10:01:51.051Z,12.99
2018-04-26T10:02:51.127Z,13.06
2018-04-26T10:03:51.224Z,13.06
2018-04-26T10:04:51.320Z,12.93
2018-04-26T10:05:51.416Z,12.71
2018-04-26T10:06:51.515Z,12.78
2018-04-26T10:07:51.612Z,12.88
2018-04-26T10:08:51.751Z,12.92
2018-04-26T10:09:51.868Z,12.93
2018-04-26T10:10:51.850Z,13.03
2018-04-26T10:11:51.948Z,13.03
2018-04-26T10:12:52.051Z,13.06
2018-04-26T10:13:52.146Z,12.67
2018-04-26T10:14:52.244Z,12.42
2018-04-26T10:15:52.340Z,12.27
2018-04-26T10:16:52.451Z,12.04
2018-04-26T10:17:52.537Z,11.80
2018-04-26T10:18:52.661Z,11.93
2018-04-26T10:19:52.760Z,11.85
2018-04-26T10:20:52.859Z,11.93
2018-04-26T10:21:52.956Z,12.01
2018-04-26T10:22:53.054Z,12.01
2018-04-26T10:23:53.154Z,11.93
2018-04-26T10:24:53.248Z,11.89
2018-04-26T10:25:53.379Z,11.85
2018-04-26T10:26:53.475Z,11.94
2018-04-26T10:27:53.571Z,12.12
2018-04-26T10:28:53.666Z,12.30
2018-04-26T10:29:53.814Z,12.39
2018-04-26T10:30:53.863Z,12.60
2018-04-26T10:31:53.986Z,12.88
2018-04-26T10:32:54.044Z,13.03
2018-04-26T10:33:54.142Z,13.18
2018-04-26T10:34:54.240Z,13.07
2018-04-26T10:35:54.338Z,12.87
2018-04-26T10:36:54.437Z,12.74
2018-04-26T10:37:54.535Z,12.85
2018-04-26T10:38:54.636Z,12.97
2018-04-26T10:39:54.726Z,13.09
2018-04-26T10:40:54.823Z,13.32
2018-04-26T10:41:54.923Z,13.37
2018-04-26T10:42:55.020Z,13.44
2018-04-26T10:43:55.116Z,13.30
2018-04-26T10:44:55.220Z,13.22
2018-04-26T10:45:55.311Z,13.41
2018-04-26T10:46:55.408Z,13.52
2018-04-26T10:47:55.506Z,13.69
2018-04-26T10:48:55.606Z,13.74
2018-04-26T10:49:55.700Z,13.81
2018-04-26T10:50:55.799Z,13.96
2018-04-26T10:51:55.898Z,13.74
2018-04-26T10:52:56.094Z,13.92
2018-04-26T10:53:56.116Z,14.02
2018-04-26T10:54:56.215Z,14.12
2018-04-26T10:55:56.311Z,14.19
2018-04-26T10:56:56.409Z,14.34
2018-04-26T10:57:56.507Z,14.32
2018-04-26T10:58:56.605Z,14.21
2018-04-26T10:59:56.720Z,14.21
2018-04-26T11:00:56.819Z,14.32
2018-04-26T11:01:56.922Z,14.29
2018-04-26T11:02:57.017Z,14.28
2018-04-26T11:03:57.115Z,14.34
2018-04-26T11:04:57.212Z,14.28
2018-04-26T11:05:57.306Z,14.29
2018-04-26T11:06:57.406Z,14.20
2018-04-26T11:07:57.507Z,14.27
2018-04-26T11:08:57.632Z,14.35
2018-04-26T11:09:58.517Z,14.44
2018-04-26T11:10:57.888Z,14.53
2018-04-26T11:11:57.987Z,14.54
2018-04-26T11:12:58.091Z,14.62
2018-04-26T11:13:58.273Z,14.72
2018-04-26T11:14:58.333Z,14.67
2018-04-26T11:15:58.590Z,14.78
2018-04-26T11:16:58.476Z,15.06
2018-04-26T11:17:58.676Z,14.94
2018-04-26T11:18:58.667Z,15.12
2018-04-26T11:19:58.805Z,15.05
2018-04-26T11:20:58.936Z,15.23
2018-04-26T11:21:59.091Z,15.20
2018-04-26T11:22:59.097Z,15.36
2018-04-26T11:23:59.180Z,15.46
2018-04-26T11:24:59.295Z,15.41
2018-04-26T11:25:59.421Z,15.41
2018-04-26T11:26:59.522Z,15.43
2018-04-26T11:27:59.608Z,15.46
2018-04-26T11:28:59.836Z,15.19
2018-04-26T11:29:59.914Z,15.36
2018-04-26T11:30:59.900Z,15.63
2018-04-26T11:31:59.996Z,15.81
2018-04-26T11:33:00.107Z,15.99
2018-04-26T11:34:00.201Z,16.01
2018-04-26T11:35:00.338Z,16.09
2018-04-26T11:36:00.549Z,16.20
2018-04-26T11:37:00.549Z,16.20
2018-04-26T11:38:00.652Z,16.53
2018-04-26T11:39:00.771Z,16.74
2018-04-26T11:40:00.859Z,16.55
2018-04-26T11:41:01.047Z,16.67
2018-04-26T11:42:01.221Z,16.75
2018-04-26T11:43:01.175Z,16.60
2018-04-26T11:44:01.265Z,16.49
2018-04-26T11:45:01.387Z,16.49
2018-04-26T11:46:01.503Z,16.44
2018-04-26T11:47:01.621Z,16.65
2018-04-26T11:48:01.749Z,16.52
2018-04-26T11:49:01.842Z,16.85
2018-04-26T11:50:01.930Z,16.68
2018-04-26T11:51:02.031Z,16.58
2018-04-26T11:52:02.160Z,16.62
2018-04-26T11:53:02.266Z,16.67
2018-04-26T11:54:02.371Z,16.71
2018-04-26T11:55:02.452Z,16.68
2018-04-26T11:56:02.544Z,16.67
2018-04-26T11:57:02.630Z,16.89
2018-04-26T11:58:02.727Z,16.88
2018-04-26T11:59:02.813Z,16.73
2018-04-26T12:00:02.922Z,16.67
2018-04-26T12:01:03.017Z,16.65
2018-04-26T12:02:03.106Z,16.49
2018-04-26T12:03:03.203Z,16.45
2018-04-26T12:04:03.311Z,16.45
2018-04-26T12:05:03.535Z,16.31
2018-04-26T12:06:03.567Z,16.40
2018-04-26T12:07:03.672Z,16.48
2018-04-26T12:08:03.774Z,16.49
2018-04-26T12:09:04.002Z,16.63
2018-04-26T12:10:03.974Z,16.58
2018-04-26T12:11:04.066Z,16.49
2018-04-26T12:12:04.157Z,16.44
2018-04-26T12:13:04.283Z,16.35
2018-04-26T12:14:04.393Z,16.00
2018-04-26T12:15:04.481Z,15.78
2018-04-26T12:16:04.584Z,15.66
2018-04-26T12:17:04.682Z,15.20
2018-04-26T12:18:04.784Z,15.06
2018-04-26T12:19:04.876Z,15.09
2018-04-26T12:20:04.957Z,15.24
2018-04-26T12:21:05.069Z,15.36
2018-04-26T12:22:05.180Z,15.54
2018-04-26T12:23:05.301Z,15.30
2018-04-26T12:24:05.497Z,15.15
2018-04-26T12:25:05.511Z,15.19
2018-04-26T12:26:05.607Z,15.54
2018-04-26T12:27:05.729Z,15.49
2018-04-26T12:28:05.841Z,15.48
2018-04-26T12:29:05.944Z,15.56
2018-04-26T12:30:06.032Z,15.57
2018-04-26T12:31:06.116Z,15.74
2018-04-26T12:32:06.213Z,15.88
2018-04-26T12:33:06.296Z,16.03
2018-04-26T12:34:06.389Z,16.03
2018-04-26T12:35:06.513Z,16.27
2018-04-26T12:36:06.596Z,15.76
2018-04-26T12:37:06.683Z,15.75
2018-04-26T12:38:06.774Z,15.42
2018-04-26T12:39:06.882Z,15.46
2018-04-26T12:40:07.009Z,15.36
2018-04-26T12:41:07.089Z,15.51
2018-04-26T12:42:07.269Z,15.63
2018-04-26T12:43:07.305Z,15.78
2018-04-26T12:44:07.398Z,15.92
2018-04-26T12:45:07.505Z,15.89
2018-04-26T12:46:07.601Z,15.99
2018-04-26T12:47:07.704Z,15.81
2018-04-26T12:48:07.796Z,15.94
2018-04-26T12:49:07.913Z,15.93
2018-04-26T12:50:08.005Z,16.07
2018-04-26T12:51:08.101Z,16.07
2018-04-26T12:52:08.190Z,16.04
2018-04-26T12:53:08.304Z,16.23
2018-04-26T12:54:08.395Z,16.06
2018-04-26T12:55:08.499Z,16.07
2018-04-26T12:56:08.613Z,16.23
2018-04-26T12:57:08.708Z,16.30
2018-04-26T12:58:08.906Z,16.42
2018-04-26T12:59:08.876Z,16.49
2018-04-26T13:00:08.971Z,16.48